Terminal Aerodrome Forecast
Issued by NWS Pittsburgh, PA

Current Version | Previous Version | Graphics & Text | Print | Product List | Glossary On
Versions: 1 2 3 4 5 6 7 8 9 10 11 12 13 14 15 16 17 18 19 20 21 22 23 24 25 26
720
FTUS41 KPBZ 211120
TAFPIT
TAF
KPIT 211120Z 2112/2218 VRB03KT P6SM SCT250
     FM211700 36005KT P6SM BKN150
     FM221200 05005KT P6SM SCT150=

USA.gov is the U.S. government's official web portal to all federal, state and local government web resources and services.